(°C)
19°
18°
18°
18°
18°
18°
19°
(°C)
21°
21°
20°
20°
20°
21°
22°
ასა
ასა
ასა
ასა
სა
სა
სა
(კმ/სთ)
5-11
4-10
3-9
3-9
3-9
3-7
3-7
(მმ)
0
0
0
0
0
0
0
(%)
11
0
0
0
0
0
0

მზის სიმაღლე

/ -15.1°
sun-icon
UV 4
05:25
21:47
კლებადი მთვარე (211°)
23:17
07:39

METAR 55.03°ჩრ. 82.6°აღმ. (UNNT)-თვის

დრო პირობები ტემპერატურა/
ნამი
ქარი ხილვადობა ამინდი ღრუბლები წნევა ცვლილება დაუმუშავებელი
IFR 19°C / 19°C variable 0kt 4700m Mist Vertical Visibility of 0ft. 1003 No Significant change. Runway 07: Clear and dry, 51-100% contamination with <1mm, friction coefficient 0.70. Runway 34: Clear and dry, 51-100% contamination with <1mm, friction coefficient 0.70. UNNT 251730Z 00000MPS 4700 BR NSC 19/19 Q1003 R07/090070 R34/090070 NOSIG RMK QFE742/0990
MVFR 19°C / 19°C variable 2kt 7000m - Clear 1003 No Significant change. Runway 07: Clear and dry, 51-100% contamination with <1mm, friction coefficient 0.70. Runway 34: Clear and dry, 51-100% contamination with <1mm, friction coefficient 0.70. UNNT 251700Z VRB01MPS 7000 NSC 19/19 Q1003 R07/090070 R34/090070 NOSIG RMK QFE743/0990
VFR 20°C / 20°C 70º 2kt 9000m - Clear 1003 No Significant change. Runway 25: Clear and dry, 51-100% contamination with <1mm, friction coefficient 0.70. Runway 34: Clear and dry, 51-100% contamination with <1mm, friction coefficient 0.70. UNNT 251630Z 07001MPS 9000 NSC 20/20 Q1003 R25/090070 R34/090070 NOSIG RMK QFE743/0990
VFR 19°C / 19°C variable 2kt 9000m - Clear 1003 No Significant change. Runway 25: Clear and dry, 51-100% contamination with <1mm, friction coefficient 0.70. Runway 34: Clear and dry, 51-100% contamination with <1mm, friction coefficient 0.70. UNNT 251600Z VRB01MPS 9000 NSC 19/19 Q1003 R25/090070 R34/090070 NOSIG RMK QFE743/0990
MVFR 20°C / 19°C 70º 4kt 8000m - Clear 1004 No Significant change. Runway 25: Clear and dry, 51-100% contamination with <1mm, friction coefficient 0.70. Runway 34: Clear and dry, 51-100% contamination with <1mm, friction coefficient 0.70. UNNT 251530Z 07002MPS 8000 NSC 20/19 Q1004 R25/090070 R34/090070 NOSIG RMK QFE743/0991
VFR 20°C / 20°C 30º 4kt >10km - Scattered Clouds 5300ft 1004 No Significant change. Runway 25: Clear and dry, 51-100% contamination with <1mm, friction coefficient 0.70. Runway 34: Clear and dry, 51-100% contamination with <1mm, friction coefficient 0.70. UNNT 251500Z 03002MPS 9999 SCT053CB 20/20 Q1004 R25/090070 R34/090070 NOSIG RMK QFE743/0991
VFR 21°C / 20°C 10º 6kt >10km - Scattered Clouds 5300ft 1004 No Significant change. Runway 07: Clear and dry, 51-100% contamination with <1mm, friction coefficient 0.70. Runway 34: Clear and dry, 51-100% contamination with <1mm, friction coefficient 0.70. UNNT 251430Z 01003MPS 9999 SCT053CB 21/20 Q1004 R07/090070 R34/090070 NOSIG RMK QFE743/0991
VFR 22°C / 20°C 360º 4kt >10km - Scattered Clouds 5300ft 1004 No Significant change. Runway 07: Clear and dry, 51-100% contamination with <1mm, friction coefficient 0.70. Runway 34: Clear and dry, 51-100% contamination with <1mm, friction coefficient 0.70. UNNT 251400Z 36002MPS 9999 SCT053CB 22/20 Q1004 R07/090070 R34/090070 NOSIG RMK QFE743/0991
VFR 23°C / 20°C 310º 4kt >10km - Scattered Clouds 5000ft 1004 No Significant change. Runway 07: Clear and dry, 51-100% contamination with <1mm, friction coefficient 0.70. Runway 34: Clear and dry, 51-100% contamination with <1mm, friction coefficient 0.70. UNNT 251330Z 31002MPS 9999 SCT050CB 23/20 Q1004 R07/090070 R34/090070 NOSIG RMK QFE743/0991
VFR 23°C / 19°C 350º 4kt >10km - Scattered Clouds 5000ft 1004 No Significant change. Runway 07: Clear and dry, 51-100% contamination with <1mm, friction coefficient 0.70. Runway 34: Clear and dry, 51-100% contamination with <1mm, friction coefficient 0.70. UNNT 251300Z 35002MPS 9999 SCT050CB 23/19 Q1004 R07/090070 R34/090070 NOSIG RMK QFE743/0991
VFR 25°C / 19°C 20º variable 340º to 060º 4kt >10km - Scattered Clouds 4600ft 1005 No Significant change. Runway 07: Clear and dry, 51-100% contamination with <1mm, friction coefficient 0.70. Runway 34: Clear and dry, 51-100% contamination with <1mm, friction coefficient 0.70. UNNT 251230Z 02002MPS 340V060 9999 SCT046CB 25/19 Q1005 R07/090070 R34/090070 NOSIG RMK QFE744/0992
VFR 26°C / 19°C 40º 4kt >10km - Scattered Clouds 4600ft 1004 No Significant change. Runway 07: Clear and dry, 51-100% contamination with <1mm, friction coefficient 0.70. Runway 34: Clear and dry, 51-100% contamination with <1mm, friction coefficient 0.70. UNNT 251200Z 04002MPS 9999 SCT046CB 26/19 Q1004 R07/090070 R34/090070 NOSIG RMK QFE743/0991
VFR 26°C / 19°C 60º 8kt >10km - Scattered Clouds 4400ft 1005 No Significant change. Runway 07: Clear and dry, 51-100% contamination with <1mm, friction coefficient 0.70. Runway 34: Clear and dry, 51-100% contamination with <1mm, friction coefficient 0.70. UNNT 251130Z 06004MPS 9999 SCT044CB 26/19 Q1005 R07/090070 R34/090070 NOSIG RMK QFE744/0992
VFR 30°C / 18°C variable 2kt >10km - Scattered Clouds 4800ft 1004 No Significant change. Runway 25: Clear and dry, 51-100% contamination with <1mm, friction coefficient 0.70. Runway 34: Clear and dry, 51-100% contamination with <1mm, friction coefficient 0.70. UNNT 251100Z VRB01MPS 9999 SCT048CB 30/18 Q1004 R25/090070 R34/090070 NOSIG RMK QFE743/0991
VFR 29°C / 17°C 160º variable 080º to 210º 4kt >10km in the Vicinity Thunderstorm Vertical Visibility of 0ft. 1004 No Significant change. Runway 25: Clear and dry, 51-100% contamination with <1mm, friction coefficient 0.70. Runway 34: Clear and dry, 51-100% contamination with <1mm, friction coefficient 0.70. UNNT 251030Z 16002MPS 080V210 9999 VCTS SCT050CB 29/17 Q1004 R25/090070 R34/090070 NOSIG RMK QFE743/0991
VFR 30°C / 18°C 180º variable 130º to 230º 4kt >10km - Scattered Clouds 4600ft 1004 No Significant change. Runway 25: Clear and dry, 51-100% contamination with <1mm, friction coefficient 0.70. Runway 34: Clear and dry, 51-100% contamination with <1mm, friction coefficient 0.70. UNNT 251000Z 18002MPS 130V230 9999 SCT046CB 30/18 Q1004 R25/090070 R34/090070 NOSIG RMK QFE743/0991
VFR 30°C / 18°C 160º variable 130º to 220º 6kt >10km - Scattered Clouds 4600ft 1005 No Significant change. Runway 25: Clear and dry, 51-100% contamination with <1mm, friction coefficient 0.70. Runway 34: Clear and dry, 51-100% contamination with <1mm, friction coefficient 0.70. UNNT 250930Z 16003MPS 130V220 9999 SCT046CB 30/18 Q1005 R25/090070 R34/090070 NOSIG RMK QFE743/0991
VFR 29°C / 18°C 160º variable 120º to 250º 4kt >10km - Scattered Clouds 4200ft 1005 No Significant change. Runway 25: Clear and dry, 51-100% contamination with <1mm, friction coefficient 0.70. Runway 34: Clear and dry, 51-100% contamination with <1mm, friction coefficient 0.70. UNNT 250900Z 16002MPS 120V250 9999 SCT042CB 29/18 Q1005 R25/090070 R34/090070 NOSIG RMK QFE744/0992
VFR 29°C / 20°C 220º variable 140º to 300º 4kt >10km - Scattered Clouds 4200ft 1005 No Significant change. Runway 25: Clear and dry, 51-100% contamination with <1mm, friction coefficient 0.70. Runway 34: Clear and dry, 51-100% contamination with <1mm, friction coefficient 0.70. UNNT 250830Z 22002MPS 140V300 9999 SCT042CB 29/20 Q1005 R25/090070 R34/090070 NOSIG RMK QFE744/0992
VFR 30°C / 20°C 190º variable 150º to 240º 6kt >10km - Scattered Clouds 4600ft 1005 No Significant change. Runway 25: Clear and dry, 51-100% contamination with <1mm, friction coefficient 0.70. Runway 34: Clear and dry, 51-100% contamination with <1mm, friction coefficient 0.70. UNNT 250800Z 19003MPS 150V240 9999 SCT046CB 30/20 Q1005 R25/090070 R34/090070 NOSIG RMK QFE744/0992
VFR 29°C / 19°C 180º variable 110º to 240º 6kt >10km - Scattered Clouds 5000ft 1005 No Significant change. Runway 25: Clear and dry, 51-100% contamination with <1mm, friction coefficient 0.70. Runway 34: Clear and dry, 51-100% contamination with <1mm, friction coefficient 0.70. UNNT 250730Z 18003MPS 110V240 9999 SCT050CB 29/19 Q1005 R25/090070 R34/090070 NOSIG RMK QFE744/0992
VFR 29°C / 20°C 140º variable 070º to 230º 4kt >10km - Scattered Clouds 5000ft 1005 No Significant change. Runway 25: Clear and dry, 51-100% contamination with <1mm, friction coefficient 0.70. Runway 34: Clear and dry, 51-100% contamination with <1mm, friction coefficient 0.70. UNNT 250700Z 14002MPS 070V230 9999 SCT050CB 29/20 Q1005 R25/090070 R34/090070 NOSIG RMK QFE744/0992
VFR 28°C / 20°C variable 4kt >10km - Scattered Clouds 3700ft 1005 No Significant change. Runway 25: Clear and dry, 51-100% contamination with <1mm, friction coefficient 0.70. Runway 34: Clear and dry, 51-100% contamination with <1mm, friction coefficient 0.70. UNNT 250630Z VRB02MPS 9999 SCT037CB 28/20 Q1005 R25/090070 R34/090070 NOSIG RMK QFE744/0992
VFR 27°C / 19°C variable 2kt >10km - Scattered Clouds 3800ft 1006 No Significant change. Runway 25: Clear and dry, 51-100% contamination with <1mm, friction coefficient 0.70. Runway 34: Clear and dry, 51-100% contamination with <1mm, friction coefficient 0.70. UNNT 250600Z VRB01MPS 9999 SCT038CB 27/19 Q1006 R25/090070 R34/090070 NOSIG RMK QFE744/0993

IFR

19°C / 19°C

[მეტი]
ქარი variable 0kt
ხილვადობა 4700m
ამინდი Mist
ღრუბლები Vertical Visibility of 0ft.
წნევა 1003
ცვლილება No Significant change. Runway 07: Clear and dry, 51-100% contamination with <1mm, friction coefficient 0.70. Runway 34: Clear and dry, 51-100% contamination with <1mm, friction coefficient 0.70.
დაუმუშავებელი UNNT 251730Z 00000MPS 4700 BR NSC 19/19 Q1003 R07/090070 R34/090070 NOSIG RMK QFE742/0990

MVFR

19°C / 19°C

[მეტი]
ქარი variable 2kt
ხილვადობა 7000m
ამინდი -
ღრუბლები Clear
წნევა 1003
ცვლილება No Significant change. Runway 07: Clear and dry, 51-100% contamination with <1mm, friction coefficient 0.70. Runway 34: Clear and dry, 51-100% contamination with <1mm, friction coefficient 0.70.
დაუმუშავებელი UNNT 251700Z VRB01MPS 7000 NSC 19/19 Q1003 R07/090070 R34/090070 NOSIG RMK QFE743/0990

VFR

20°C / 20°C

[მეტი]
ქარი 70º 2kt
ხილვადობა 9000m
ამინდი -
ღრუბლები Clear
წნევა 1003
ცვლილება No Significant change. Runway 25: Clear and dry, 51-100% contamination with <1mm, friction coefficient 0.70. Runway 34: Clear and dry, 51-100% contamination with <1mm, friction coefficient 0.70.
დაუმუშავებელი UNNT 251630Z 07001MPS 9000 NSC 20/20 Q1003 R25/090070 R34/090070 NOSIG RMK QFE743/0990

VFR

19°C / 19°C

[მეტი]
ქარი variable 2kt
ხილვადობა 9000m
ამინდი -
ღრუბლები Clear
წნევა 1003
ცვლილება No Significant change. Runway 25: Clear and dry, 51-100% contamination with <1mm, friction coefficient 0.70. Runway 34: Clear and dry, 51-100% contamination with <1mm, friction coefficient 0.70.
დაუმუშავებელი UNNT 251600Z VRB01MPS 9000 NSC 19/19 Q1003 R25/090070 R34/090070 NOSIG RMK QFE743/0990

MVFR

20°C / 19°C

[მეტი]
ქარი 70º 4kt
ხილვადობა 8000m
ამინდი -
ღრუბლები Clear
წნევა 1004
ცვლილება No Significant change. Runway 25: Clear and dry, 51-100% contamination with <1mm, friction coefficient 0.70. Runway 34: Clear and dry, 51-100% contamination with <1mm, friction coefficient 0.70.
დაუმუშავებელი UNNT 251530Z 07002MPS 8000 NSC 20/19 Q1004 R25/090070 R34/090070 NOSIG RMK QFE743/0991

VFR

20°C / 20°C

[მეტი]
ქარი 30º 4kt
ხილვადობა >10km
ამინდი -
ღრუბლები Scattered Clouds 5300ft
წნევა 1004
ცვლილება No Significant change. Runway 25: Clear and dry, 51-100% contamination with <1mm, friction coefficient 0.70. Runway 34: Clear and dry, 51-100% contamination with <1mm, friction coefficient 0.70.
დაუმუშავებელი UNNT 251500Z 03002MPS 9999 SCT053CB 20/20 Q1004 R25/090070 R34/090070 NOSIG RMK QFE743/0991

VFR

21°C / 20°C

[მეტი]
ქარი 10º 6kt
ხილვადობა >10km
ამინდი -
ღრუბლები Scattered Clouds 5300ft
წნევა 1004
ცვლილება No Significant change. Runway 07: Clear and dry, 51-100% contamination with <1mm, friction coefficient 0.70. Runway 34: Clear and dry, 51-100% contamination with <1mm, friction coefficient 0.70.
დაუმუშავებელი UNNT 251430Z 01003MPS 9999 SCT053CB 21/20 Q1004 R07/090070 R34/090070 NOSIG RMK QFE743/0991

VFR

22°C / 20°C

[მეტი]
ქარი 360º 4kt
ხილვადობა >10km
ამინდი -
ღრუბლები Scattered Clouds 5300ft
წნევა 1004
ცვლილება No Significant change. Runway 07: Clear and dry, 51-100% contamination with <1mm, friction coefficient 0.70. Runway 34: Clear and dry, 51-100% contamination with <1mm, friction coefficient 0.70.
დაუმუშავებელი UNNT 251400Z 36002MPS 9999 SCT053CB 22/20 Q1004 R07/090070 R34/090070 NOSIG RMK QFE743/0991

VFR

23°C / 20°C

[მეტი]
ქარი 310º 4kt
ხილვადობა >10km
ამინდი -
ღრუბლები Scattered Clouds 5000ft
წნევა 1004
ცვლილება No Significant change. Runway 07: Clear and dry, 51-100% contamination with <1mm, friction coefficient 0.70. Runway 34: Clear and dry, 51-100% contamination with <1mm, friction coefficient 0.70.
დაუმუშავებელი UNNT 251330Z 31002MPS 9999 SCT050CB 23/20 Q1004 R07/090070 R34/090070 NOSIG RMK QFE743/0991

VFR

23°C / 19°C

[მეტი]
ქარი 350º 4kt
ხილვადობა >10km
ამინდი -
ღრუბლები Scattered Clouds 5000ft
წნევა 1004
ცვლილება No Significant change. Runway 07: Clear and dry, 51-100% contamination with <1mm, friction coefficient 0.70. Runway 34: Clear and dry, 51-100% contamination with <1mm, friction coefficient 0.70.
დაუმუშავებელი UNNT 251300Z 35002MPS 9999 SCT050CB 23/19 Q1004 R07/090070 R34/090070 NOSIG RMK QFE743/0991

VFR

25°C / 19°C

[მეტი]
ქარი 20º variable 340º to 060º 4kt
ხილვადობა >10km
ამინდი -
ღრუბლები Scattered Clouds 4600ft
წნევა 1005
ცვლილება No Significant change. Runway 07: Clear and dry, 51-100% contamination with <1mm, friction coefficient 0.70. Runway 34: Clear and dry, 51-100% contamination with <1mm, friction coefficient 0.70.
დაუმუშავებელი UNNT 251230Z 02002MPS 340V060 9999 SCT046CB 25/19 Q1005 R07/090070 R34/090070 NOSIG RMK QFE744/0992

VFR

26°C / 19°C

[მეტი]
ქარი 40º 4kt
ხილვადობა >10km
ამინდი -
ღრუბლები Scattered Clouds 4600ft
წნევა 1004
ცვლილება No Significant change. Runway 07: Clear and dry, 51-100% contamination with <1mm, friction coefficient 0.70. Runway 34: Clear and dry, 51-100% contamination with <1mm, friction coefficient 0.70.
დაუმუშავებელი UNNT 251200Z 04002MPS 9999 SCT046CB 26/19 Q1004 R07/090070 R34/090070 NOSIG RMK QFE743/0991

VFR

26°C / 19°C

[მეტი]
ქარი 60º 8kt
ხილვადობა >10km
ამინდი -
ღრუბლები Scattered Clouds 4400ft
წნევა 1005
ცვლილება No Significant change. Runway 07: Clear and dry, 51-100% contamination with <1mm, friction coefficient 0.70. Runway 34: Clear and dry, 51-100% contamination with <1mm, friction coefficient 0.70.
დაუმუშავებელი UNNT 251130Z 06004MPS 9999 SCT044CB 26/19 Q1005 R07/090070 R34/090070 NOSIG RMK QFE744/0992

VFR

30°C / 18°C

[მეტი]
ქარი variable 2kt
ხილვადობა >10km
ამინდი -
ღრუბლები Scattered Clouds 4800ft
წნევა 1004
ცვლილება No Significant change. Runway 25: Clear and dry, 51-100% contamination with <1mm, friction coefficient 0.70. Runway 34: Clear and dry, 51-100% contamination with <1mm, friction coefficient 0.70.
დაუმუშავებელი UNNT 251100Z VRB01MPS 9999 SCT048CB 30/18 Q1004 R25/090070 R34/090070 NOSIG RMK QFE743/0991

VFR

29°C / 17°C

[მეტი]
ქარი 160º variable 080º to 210º 4kt
ხილვადობა >10km
ამინდი in the Vicinity Thunderstorm
ღრუბლები Vertical Visibility of 0ft.
წნევა 1004
ცვლილება No Significant change. Runway 25: Clear and dry, 51-100% contamination with <1mm, friction coefficient 0.70. Runway 34: Clear and dry, 51-100% contamination with <1mm, friction coefficient 0.70.
დაუმუშავებელი UNNT 251030Z 16002MPS 080V210 9999 VCTS SCT050CB 29/17 Q1004 R25/090070 R34/090070 NOSIG RMK QFE743/0991

VFR

30°C / 18°C

[მეტი]
ქარი 180º variable 130º to 230º 4kt
ხილვადობა >10km
ამინდი -
ღრუბლები Scattered Clouds 4600ft
წნევა 1004
ცვლილება No Significant change. Runway 25: Clear and dry, 51-100% contamination with <1mm, friction coefficient 0.70. Runway 34: Clear and dry, 51-100% contamination with <1mm, friction coefficient 0.70.
დაუმუშავებელი UNNT 251000Z 18002MPS 130V230 9999 SCT046CB 30/18 Q1004 R25/090070 R34/090070 NOSIG RMK QFE743/0991

VFR

30°C / 18°C

[მეტი]
ქარი 160º variable 130º to 220º 6kt
ხილვადობა >10km
ამინდი -
ღრუბლები Scattered Clouds 4600ft
წნევა 1005
ცვლილება No Significant change. Runway 25: Clear and dry, 51-100% contamination with <1mm, friction coefficient 0.70. Runway 34: Clear and dry, 51-100% contamination with <1mm, friction coefficient 0.70.
დაუმუშავებელი UNNT 250930Z 16003MPS 130V220 9999 SCT046CB 30/18 Q1005 R25/090070 R34/090070 NOSIG RMK QFE743/0991

VFR

29°C / 18°C

[მეტი]
ქარი 160º variable 120º to 250º 4kt
ხილვადობა >10km
ამინდი -
ღრუბლები Scattered Clouds 4200ft
წნევა 1005
ცვლილება No Significant change. Runway 25: Clear and dry, 51-100% contamination with <1mm, friction coefficient 0.70. Runway 34: Clear and dry, 51-100% contamination with <1mm, friction coefficient 0.70.
დაუმუშავებელი UNNT 250900Z 16002MPS 120V250 9999 SCT042CB 29/18 Q1005 R25/090070 R34/090070 NOSIG RMK QFE744/0992

VFR

29°C / 20°C

[მეტი]
ქარი 220º variable 140º to 300º 4kt
ხილვადობა >10km
ამინდი -
ღრუბლები Scattered Clouds 4200ft
წნევა 1005
ცვლილება No Significant change. Runway 25: Clear and dry, 51-100% contamination with <1mm, friction coefficient 0.70. Runway 34: Clear and dry, 51-100% contamination with <1mm, friction coefficient 0.70.
დაუმუშავებელი UNNT 250830Z 22002MPS 140V300 9999 SCT042CB 29/20 Q1005 R25/090070 R34/090070 NOSIG RMK QFE744/0992

VFR

30°C / 20°C

[მეტი]
ქარი 190º variable 150º to 240º 6kt
ხილვადობა >10km
ამინდი -
ღრუბლები Scattered Clouds 4600ft
წნევა 1005
ცვლილება No Significant change. Runway 25: Clear and dry, 51-100% contamination with <1mm, friction coefficient 0.70. Runway 34: Clear and dry, 51-100% contamination with <1mm, friction coefficient 0.70.
დაუმუშავებელი UNNT 250800Z 19003MPS 150V240 9999 SCT046CB 30/20 Q1005 R25/090070 R34/090070 NOSIG RMK QFE744/0992

VFR

29°C / 19°C

[მეტი]
ქარი 180º variable 110º to 240º 6kt
ხილვადობა >10km
ამინდი -
ღრუბლები Scattered Clouds 5000ft
წნევა 1005
ცვლილება No Significant change. Runway 25: Clear and dry, 51-100% contamination with <1mm, friction coefficient 0.70. Runway 34: Clear and dry, 51-100% contamination with <1mm, friction coefficient 0.70.
დაუმუშავებელი UNNT 250730Z 18003MPS 110V240 9999 SCT050CB 29/19 Q1005 R25/090070 R34/090070 NOSIG RMK QFE744/0992

VFR

29°C / 20°C

[მეტი]
ქარი 140º variable 070º to 230º 4kt
ხილვადობა >10km
ამინდი -
ღრუბლები Scattered Clouds 5000ft
წნევა 1005
ცვლილება No Significant change. Runway 25: Clear and dry, 51-100% contamination with <1mm, friction coefficient 0.70. Runway 34: Clear and dry, 51-100% contamination with <1mm, friction coefficient 0.70.
დაუმუშავებელი UNNT 250700Z 14002MPS 070V230 9999 SCT050CB 29/20 Q1005 R25/090070 R34/090070 NOSIG RMK QFE744/0992

VFR

28°C / 20°C

[მეტი]
ქარი variable 4kt
ხილვადობა >10km
ამინდი -
ღრუბლები Scattered Clouds 3700ft
წნევა 1005
ცვლილება No Significant change. Runway 25: Clear and dry, 51-100% contamination with <1mm, friction coefficient 0.70. Runway 34: Clear and dry, 51-100% contamination with <1mm, friction coefficient 0.70.
დაუმუშავებელი UNNT 250630Z VRB02MPS 9999 SCT037CB 28/20 Q1005 R25/090070 R34/090070 NOSIG RMK QFE744/0992

VFR

27°C / 19°C

[მეტი]
ქარი variable 2kt
ხილვადობა >10km
ამინდი -
ღრუბლები Scattered Clouds 3800ft
წნევა 1006
ცვლილება No Significant change. Runway 25: Clear and dry, 51-100% contamination with <1mm, friction coefficient 0.70. Runway 34: Clear and dry, 51-100% contamination with <1mm, friction coefficient 0.70.
დაუმუშავებელი UNNT 250600Z VRB01MPS 9999 SCT038CB 27/19 Q1006 R25/090070 R34/090070 NOSIG RMK QFE744/0993

TAF 55.03°ჩრ. 82.6°აღმ. (UNNT)-თვის

From till


From till Wind 180º 6kt. Gust 16kt. Visibility 6000m. Scattered Clouds 4000ft.
Temporarly from till Visibility 305.775m. Fog . Broken Clouds 200ft.
From till Wind 240º 6kt. Gust 16kt. Visibility 10km or more. Light Showers Rain . Broken Clouds 4000ft.
Temporarly from till Light Thunderstorm Rain . Broken Clouds 1600ft.
Becoming from till Wind 290º 14kt. Gust 31kt. Visibility 10km or more. Light Showers Rain . Broken Clouds 4000ft.

დაუმუშავებელი: TAF UNNT 251700Z 2518/2618 18003G08MPS 6000 SCT040 TEMPO 2518/2601 0300 FG BKN002 FM260300 24003G08MPS 9999 -SHRA BKN040CB TEMPO 2603/2618 -TSRA BKN016CB BECMG 2607/2610 29007G16MPS

მიმდინარე სატელიტისა და წვიმის სურათები 55.03°ჩრ. 82.6°აღმ.-თვის

ლოკაციის მარკერი დაყენებყლია 55.03°ჩრ. 82.6°აღმ.ზე. [მეტი]

რეალურ დროში სატელიტური სურათი აერთიანებს ხილულ სინათლეს დღისით ღამის განმავლობაში ინფრაწითელ გამოსხივებასთან ერთად. ღამით, სურათი არ არის მუქი, რადგან ინფრაწითელ გამოსხივებას შეუძლია ტემპერატურის განსხვავებების დადგენა. სამწუხაროდ, დაბალი ღრუბლები და ნისლი ძნელია განასხვავონ მიწის ტემპერატურისგან და, შესაბამისად, ისინი შეიძლება თითქმის არ ჩანდეს ღამით. Meteosat სატელიტური გამოსახულება ევროპისთვის ახლდება რეალურ დროში ყოველ 5 წუთში. GOES-16/GOES-17 (ჩრდილოეთი და სამხრეთ ამერიკა) და ჰიმავარი (აზია) გამოსახულებები ახლდება ყოველ 10 წუთში.

საავტორო უფლებები 2021 EUMETSAT / meteoblue. / საავტორო უფლებები 2021 meteoblue

რადარის და ნალექების მაჩვენებელი 55.03°ჩრ. 82.6°აღმ. -თვის

გაწურეთ
Მსუბუქი
ზომიერი
Მძიმე
Ძალიან მძიმე
სეტყვა

მდებარეობის მარკერი მოთავსებულია 55.03°ჩრ. 82.6°აღმ. -ზე. ეს ანიმაცია აჩვენებს ნალექების სარადარო მონაცემებს როგორც ბოლო საათის განმავლობაში, ასევე 1h პროგნოზს. ჟინჟღვლა და მსუბუქი თოვლი შესაძლოა რადარისთვის შეუმჩნეველი იყოს. ნალექის ინტენსიურობა ფერებით არის კოდირებული, დაწყებული ღია ცისფერიდან მუქ მეწამულამდე.